Time;durP1;ratioP1;P1;durP2;ratioP2;P2;SDS_P1;SDS_P2;PMS_P1;PMS_P2;Temp;Humidity;BMP_temperature;BMP_pressure;BME280_temperature;BME280_humidity;BME280_pressure;Samples;Min_cycle;Max_cycle;Signal;HPM_P1;HPM_P2
2024/03/17 00:00:24;;;;;;;0.30;0.20;;;;;;;0.22;72.16;100882.50;5052624;28;20438;-81
2024/03/17 00:02:51;;;;;;;0.20;0.10;;;;;;;0.23;72.49;100882.53;5045114;28;21976;-81
2024/03/17 00:05:18;;;;;;;0.30;0.13;;;;;;;0.21;72.70;100880.78;5049272;28;20928;-80
2024/03/17 00:07:47;;;;;;;0.07;0.07;;;;;;;0.23;72.96;100894.56;5044524;28;20477;-79
2024/03/17 00:10:12;;;;;;;1.00;0.20;;;;;;;0.23;72.42;100894.56;5049873;28;20452;-80
2024/03/17 00:12:40;;;;;;;0.83;0.20;;;;;;;0.22;72.18;100903.09;5048422;28;20520;-79
2024/03/17 00:15:07;;;;;;;0.10;0.10;;;;;;;0.19;72.10;100918.47;5045189;28;20269;-81
2024/03/17 00:17:34;;;;;;;0.23;0.20;;;;;;;0.16;71.82;100906.38;5041389;28;20515;-81
2024/03/17 00:20:03;;;;;;;0.00;0.00;;;;;;;0.12;71.79;100913.19;5049947;28;20516;-81
2024/03/17 00:22:35;;;;;;;1.63;0.20;;;;;;;0.12;71.32;100914.88;5050333;28;20608;-81
2024/03/17 00:25:03;;;;;;;0.97;0.27;;;;;;;0.10;71.70;100912.28;5048406;28;20463;-79
2024/03/17 00:27:29;;;;;;;2.77;0.53;;;;;;;0.10;71.91;100939.72;5043310;28;20436;-81
2024/03/17 00:29:57;;;;;;;0.60;0.27;;;;;;;0.09;72.04;100925.97;5049023;28;20545;-81
2024/03/17 00:32:23;;;;;;;0.10;0.10;;;;;;;0.06;71.94;100928.47;5048275;28;20858;-82
2024/03/17 00:34:50;;;;;;;1.03;0.10;;;;;;;0.04;71.65;100927.56;5047839;28;20459;-81
2024/03/17 00:37:17;;;;;;;1.90;0.30;;;;;;;0.04;70.78;100947.28;5048502;28;20509;-80
2024/03/17 00:39:44;;;;;;;0.97;0.20;;;;;;;0.02;71.41;100965.25;5051019;28;20449;-80
2024/03/17 00:42:12;;;;;;;0.60;0.50;;;;;;;-0.02;70.64;100942.88;5048000;28;20804;-82
2024/03/17 00:44:38;;;;;;;0.20;0.10;;;;;;;-0.04;70.99;100972.81;5049938;28;20553;-81
2024/03/17 00:47:05;;;;;;;0.30;0.10;;;;;;;-0.04;70.75;100957.38;5041504;28;20456;-79
2024/03/17 00:49:32;;;;;;;0.43;0.27;;;;;;;-0.07;70.22;100959.88;5036383;28;20446;-79
2024/03/17 00:51:57;;;;;;;0.13;0.10;;;;;;;-0.07;70.42;100965.03;5043732;28;20914;-80
2024/03/17 00:54:25;;;;;;;0.73;0.13;;;;;;;-0.07;70.63;100984.75;5050697;28;20505;-79
2024/03/17 00:56:51;;;;;;;0.47;0.20;;;;;;;-0.11;70.55;100969.25;5041380;28;20218;-79
2024/03/17 00:59:19;;;;;;;0.70;0.27;;;;;;;-0.13;70.20;100983.75;5051055;28;20612;-83
2024/03/17 01:01:46;;;;;;;1.63;0.50;;;;;;;-0.15;70.05;101018.88;5041820;28;20936;-80
2024/03/17 01:04:13;;;;;;;0.20;0.13;;;;;;;-0.20;70.42;100979.31;5046201;28;20486;-82
2024/03/17 01:06:40;;;;;;;0.33;0.00;;;;;;;-0.20;70.52;100993.88;5043988;28;21067;-79
2024/03/17 01:09:07;;;;;;;0.23;0.20;;;;;;;-0.23;69.93;101004.06;5046796;28;20530;-81
2024/03/17 01:11:33;;;;;;;0.93;0.70;;;;;;;-0.24;69.96;101026.34;5048616;28;20446;-80
2024/03/17 01:14:00;;;;;;;1.53;0.50;;;;;;;-0.29;69.61;101015.06;5046932;28;20477;-82
2024/03/17 01:16:28;;;;;;;0.70;0.20;;;;;;;-0.31;69.46;101021.03;5043878;28;20666;-79
2024/03/17 01:18:55;;;;;;;0.80;0.23;;;;;;;-0.34;69.54;101026.94;5049579;28;20458;-82
2024/03/17 01:21:22;;;;;;;0.60;0.20;;;;;;;-0.37;69.23;101025.16;5045379;28;21823;-80
2024/03/17 01:23:49;;;;;;;0.87;0.40;;;;;;;-0.40;68.34;101027.66;5044575;28;20492;-81
2024/03/17 01:26:15;;;;;;;0.47;0.23;;;;;;;-0.42;69.03;101026.75;5047537;28;20446;-80
2024/03/17 01:28:42;;;;;;;0.57;0.03;;;;;;;-0.42;69.19;101065.31;5043369;28;20521;-80
2024/03/17 01:31:09;;;;;;;1.80;0.50;;;;;;;-0.42;69.12;101036.16;5044900;28;20448;-80
2024/03/17 01:33:37;;;;;;;2.17;0.40;;;;;;;-0.44;68.66;101037.81;5044318;28;20959;-81
2024/03/17 01:36:03;;;;;;;0.77;0.50;;;;;;;-0.46;68.89;101060.03;5041393;28;20853;-79
2024/03/17 01:38:30;;;;;;;1.33;0.50;;;;;;;-0.47;68.64;101069.44;5047524;28;20512;-80
2024/03/17 01:40:56;;;;;;;2.53;0.20;;;;;;;-0.48;69.15;101059.13;5044233;28;20505;-82
2024/03/17 01:43:24;;;;;;;0.33;0.03;;;;;;;-0.48;68.71;101067.72;5049811;28;20573;-77
2024/03/17 01:45:50;;;;;;;0.27;0.27;;;;;;;-0.50;68.33;101046.22;5045829;28;20215;-81
2024/03/17 01:48:19;;;;;;;0.40;0.20;;;;;;;-0.53;68.36;101073.56;5041193;28;20920;-83
2024/03/17 01:50:49;;;;;;;0.20;0.10;;;;;;;-0.54;68.33;101067.56;5046580;28;20456;-83
2024/03/17 01:53:16;;;;;;;0.60;0.17;;;;;;;-0.57;68.19;101075.19;5051306;28;20564;-78
2024/03/17 01:55:47;;;;;;;0.20;0.20;;;;;;;-0.61;67.52;101084.47;5046966;28;20444;-82
2024/03/17 01:58:14;;;;;;;0.60;0.30;;;;;;;-0.62;67.42;101117.88;5048397;28;20445;-80
2024/03/17 02:00:40;;;;;;;0.10;0.10;;;;;;;-0.65;66.88;101125.50;5047031;28;20441;-79
2024/03/17 02:03:09;;;;;;;0.37;0.27;;;;;;;-0.70;66.09;101099.66;5042201;28;20492;-81
2024/03/17 02:05:35;;;;;;;0.53;0.10;;;;;;;-0.70;66.76;101093.66;5049703;28;20442;-84
2024/03/17 02:08:04;;;;;;;1.00;0.30;;;;;;;-0.72;65.27;101120.97;5040591;28;20437;-82
2024/03/17 02:10:30;;;;;;;0.67;0.17;;;;;;;-0.75;65.73;101110.63;5049058;28;20523;-84
2024/03/17 02:12:58;;;;;;;0.30;0.30;;;;;;;-0.76;66.36;101129.44;5042031;28;20451;-78
2024/03/17 02:15:24;;;;;;;0.00;0.00;;;;;;;-0.75;66.50;101126.03;5045786;28;20474;-78
2024/03/17 02:17:51;;;;;;;0.37;0.20;;;;;;;-0.76;66.24;101129.44;5045746;28;20474;-84
2024/03/17 02:20:17;;;;;;;0.20;0.07;;;;;;;-0.76;66.42;101132.88;5047171;28;20662;-79
2024/03/17 02:22:46;;;;;;;0.10;0.10;;;;;;;-0.79;66.60;101141.38;5043538;28;20442;-83
2024/03/17 02:25:12;;;;;;;0.20;0.10;;;;;;;-0.78;66.66;101148.22;5045100;28;20496;-82
2024/03/17 02:27:39;;;;;;;0.00;0.00;;;;;;;-0.78;67.00;101152.50;5041658;28;20852;-80
2024/03/17 02:30:09;;;;;;;0.50;0.00;;;;;;;-0.76;67.03;101144.84;5044757;28;20443;-80
2024/03/17 02:32:36;;;;;;;1.07;0.30;;;;;;;-0.76;67.35;101160.28;5042607;28;20443;-80
2024/03/17 02:35:02;;;;;;;0.07;0.00;;;;;;;-0.79;67.86;101151.66;5049233;28;20782;-79
2024/03/17 02:37:29;;;;;;;0.00;0.00;;;;;;;-0.77;67.92;101146.56;5047768;28;20853;-81
2024/03/17 02:39:57;;;;;;;0.23;0.20;;;;;;;-0.79;66.60;101164.50;5049991;28;20446;-81
2024/03/17 02:42:24;;;;;;;0.23;0.10;;;;;;;-0.81;67.33;101194.38;5049810;28;20940;-80
2024/03/17 02:44:51;;;;;;;0.23;0.20;;;;;;;-0.82;66.64;101177.25;5048546;28;20859;-79
2024/03/17 02:47:18;;;;;;;2.07;0.10;;;;;;;-0.84;67.27;101178.88;5046635;28;20532;-82
2024/03/17 02:49:49;;;;;;;0.60;0.40;;;;;;;-0.83;66.87;101185.78;5047687;28;20446;-80
2024/03/17 02:52:16;;;;;;;0.77;0.33;;;;;;;-0.84;66.79;101184.03;5052623;28;20453;-81
2024/03/17 02:54:43;;;;;;;0.20;0.20;;;;;;;-0.83;67.05;101202.88;5044531;28;20441;-79
2024/03/17 02:57:12;;;;;;;0.93;0.10;;;;;;;-0.85;67.18;101192.56;5050968;28;20454;-79
2024/03/17 02:59:39;;;;;;;0.20;0.20;;;;;;;-0.84;67.24;101214.84;5049822;28;20973;-79
2024/03/17 03:02:06;;;;;;;0.20;0.20;;;;;;;-0.85;67.37;101215.69;5052591;28;20440;-78
2024/03/17 03:04:33;;;;;;;0.30;0.20;;;;;;;-0.89;67.81;101208.69;5050122;28;20531;-80
2024/03/17 03:07:00;;;;;;;0.20;0.17;;;;;;;-0.86;67.63;101208.81;5049577;28;20556;-78
2024/03/17 03:09:31;;;;;;;1.00;0.30;;;;;;;-0.87;68.28;101211.31;5051802;28;20546;-79
2024/03/17 03:11:59;;;;;;;0.83;0.20;;;;;;;-0.84;68.43;101214.84;5047966;28;20879;-82
2024/03/17 03:14:27;;;;;;;0.20;0.20;;;;;;;-0.83;67.86;101226.88;5050237;28;20426;-80
2024/03/17 03:16:54;;;;;;;0.53;0.10;;;;;;;-0.82;68.42;101220.91;5044708;28;20439;-76
2024/03/17 03:19:22;;;;;;;0.20;0.10;;;;;;;-0.81;68.42;101234.63;5050532;28;20551;-80
2024/03/17 03:21:49;;;;;;;0.73;0.30;;;;;;;-0.81;68.60;101237.19;5049187;28;20446;-79
2024/03/17 03:24:17;;;;;;;0.50;0.20;;;;;;;-0.82;68.25;101233.75;5050429;28;20483;-81
2024/03/17 03:26:44;;;;;;;0.83;0.20;;;;;;;-0.83;68.67;101251.69;5050785;28;20531;-79
2024/03/17 03:29:14;;;;;;;0.20;0.20;;;;;;;-0.84;68.76;101253.38;5046991;28;20447;-81
2024/03/17 03:31:42;;;;;;;0.47;0.30;;;;;;;-0.84;68.11;101270.50;5049366;28;20446;-79
2024/03/17 03:34:09;;;;;;;1.33;0.20;;;;;;;-0.83;68.60;101255.16;5045531;28;20910;-81
2024/03/17 03:36:37;;;;;;;0.40;0.33;;;;;;;-0.83;68.43;101261.97;5050341;28;20524;-78
2024/03/17 03:39:05;;;;;;;0.00;0.00;;;;;;;-0.86;68.50;101262.75;5046341;28;20434;-81
2024/03/17 03:41:33;;;;;;;2.70;0.30;;;;;;;-0.86;68.42;101296.16;5046812;28;20434;-79
2024/03/17 03:44:00;;;;;;;1.00;0.50;;;;;;;-0.87;68.11;101290.97;5051357;28;20461;-78
2024/03/17 03:46:27;;;;;;;0.43;0.33;;;;;;;-0.89;67.34;101287.47;5045169;28;20530;-81
2024/03/17 03:48:55;;;;;;;0.73;0.73;;;;;;;-0.92;67.59;101292.50;5042794;28;20469;-79
2024/03/17 03:51:23;;;;;;;0.10;0.10;;;;;;;-0.94;67.03;101328.44;5048652;28;20485;-79
2024/03/17 03:53:52;;;;;;;1.50;0.50;;;;;;;-0.98;65.69;101344.53;5044692;28;20455;-82
2024/03/17 03:56:20;;;;;;;0.30;0.27;;;;;;;-1.01;66.76;101318.75;5045548;28;20533;-80
2024/03/17 03:58:47;;;;;;;0.87;0.20;;;;;;;-1.03;66.04;101334.13;5049701;28;20450;-80
2024/03/17 04:01:21;;;;;;;0.37;0.23;;;;;;;-1.02;66.58;101337.56;5051393;28;20477;-81
2024/03/17 04:03:48;;;;;;;0.17;0.17;;;;;;;-1.05;66.77;101351.19;5049763;28;20565;-79
2024/03/17 04:06:17;;;;;;;0.53;0.20;;;;;;;-1.05;66.79;101358.88;5048045;28;20565;-82
2024/03/17 04:08:44;;;;;;;1.20;0.43;;;;;;;-1.05;66.80;101360.59;5046903;28;20457;-79
2024/03/17 04:11:11;;;;;;;1.10;0.20;;;;;;;-1.08;66.75;101355.34;5044531;28;20995;-79
2024/03/17 04:13:38;;;;;;;0.87;0.20;;;;;;;-1.06;67.43;101362.28;5046515;28;21012;-79
2024/03/17 04:16:06;;;;;;;0.63;0.53;;;;;;;-1.07;67.95;101368.22;5046428;28;20478;-80
2024/03/17 04:18:34;;;;;;;0.20;0.10;;;;;;;-1.08;67.79;101355.34;5044253;28;20486;-79
2024/03/17 04:21:03;;;;;;;0.80;0.40;;;;;;;-1.08;67.58;101379.31;5045594;28;20434;-78
2024/03/17 04:23:33;;;;;;;0.60;0.20;;;;;;;-1.08;67.88;101363.03;5051354;28;20454;-80
2024/03/17 04:26:01;;;;;;;0.13;0.13;;;;;;;-1.07;68.08;101385.31;5046640;28;20450;-79
2024/03/17 04:28:27;;;;;;;0.80;0.37;;;;;;;-1.09;67.65;101371.56;5048347;28;20429;-81
2024/03/17 04:30:54;;;;;;;0.27;0.23;;;;;;;-1.11;68.04;101391.19;5047916;28;20449;-80
2024/03/17 04:33:21;;;;;;;0.90;0.40;;;;;;;-1.12;67.78;101392.00;5042763;28;20265;-80
2024/03/17 04:35:48;;;;;;;1.40;0.33;;;;;;;-1.15;67.61;101397.03;5050426;28;20521;-78
2024/03/17 04:38:16;;;;;;;0.63;0.17;;;;;;;-1.17;67.92;101404.69;5046653;28;21015;-80
2024/03/17 04:40:45;;;;;;;0.57;0.37;;;;;;;-1.18;68.10;101409.75;5047865;28;20784;-80
2024/03/17 04:43:12;;;;;;;0.83;0.50;;;;;;;-1.20;68.08;101419.09;5039025;28;20549;-78
2024/03/17 04:45:39;;;;;;;2.07;0.50;;;;;;;-1.23;68.31;101423.31;5047872;28;20509;-79
2024/03/17 04:48:07;;;;;;;0.30;0.20;;;;;;;-1.24;68.52;101424.13;5047490;28;20537;-81
2024/03/17 04:50:34;;;;;;;0.37;0.30;;;;;;;-1.25;68.59;101444.63;5043863;28;20454;-81
2024/03/17 04:53:01;;;;;;;0.87;0.40;;;;;;;-1.23;69.34;101435.25;5051243;28;20462;-80
2024/03/17 04:55:28;;;;;;;2.13;0.77;;;;;;;-1.23;69.16;101450.66;5045191;28;20522;-81
2024/03/17 04:57:57;;;;;;;1.37;0.27;;;;;;;-1.21;69.04;101440.47;5045882;28;20524;-81
2024/03/17 05:00:24;;;;;;;1.03;0.33;;;;;;;-1.22;69.29;101457.56;5046036;28;20848;-82
2024/03/17 05:02:51;;;;;;;0.83;0.13;;;;;;;-1.23;69.71;101459.25;5049098;28;20877;-80
2024/03/17 05:05:18;;;;;;;1.50;0.80;;;;;;;-1.23;69.39;101463.50;5042831;28;20581;-80
2024/03/17 05:07:45;;;;;;;0.50;0.13;;;;;;;-1.23;69.59;101471.19;5047566;28;20988;-81
2024/03/17 05:10:12;;;;;;;1.30;0.50;;;;;;;-1.21;70.18;101466.13;5046721;28;20528;-81
2024/03/17 05:12:39;;;;;;;0.80;0.40;;;;;;;-1.21;69.83;101487.53;5048100;28;20940;-81
2024/03/17 05:15:10;;;;;;;0.20;0.17;;;;;;;-1.23;69.81;101484.03;5046415;28;20457;-82
2024/03/17 05:17:37;;;;;;;0.90;0.53;;;;;;;-1.21;69.73;101484.97;5042286;28;20458;-80
2024/03/17 05:20:07;;;;;;;1.33;0.53;;;;;;;-1.21;69.72;101489.25;5049477;28;20438;-81
2024/03/17 05:22:35;;;;;;;2.33;0.53;;;;;;;-1.21;69.70;101492.69;5048119;28;20438;-80
2024/03/17 05:25:02;;;;;;;1.67;0.33;;;;;;;-1.23;69.24;101492.63;5045234;28;20576;-80
2024/03/17 05:27:29;;;;;;;0.97;0.47;;;;;;;-1.20;69.43;101501.25;5045491;28;21134;-80
2024/03/17 05:29:56;;;;;;;1.37;0.30;;;;;;;-1.21;69.56;101505.50;5049509;28;21114;-81
2024/03/17 05:32:26;;;;;;;0.00;0.00;;;;;;;-1.21;69.78;101525.19;5043842;28;20549;-80
2024/03/17 05:34:53;;;;;;;1.33;0.50;;;;;;;-1.23;67.91;101538.84;5043963;28;20457;-80
2024/03/17 05:37:20;;;;;;;1.33;0.30;;;;;;;-1.24;68.46;101529.38;5043754;28;20955;-81
2024/03/17 05:39:47;;;;;;;2.20;0.40;;;;;;;-1.25;68.28;101563.59;5045856;28;20537;-80
2024/03/17 05:42:14;;;;;;;3.70;0.43;;;;;;;-1.25;68.14;101563.59;5044485;28;20960;-81
2024/03/17 05:44:50;;;;;;;2.30;0.70;;;;;;;-1.25;66.65;101561.03;5043483;28;21006;-77
2024/03/17 05:47:19;;;;;;;0.87;0.87;;;;;;;-1.26;66.68;101559.28;5043553;28;20450;-81
2024/03/17 05:49:47;;;;;;;3.53;0.70;;;;;;;-1.26;66.64;101578.91;5046551;28;20437;-80
2024/03/17 05:52:14;;;;;;;1.23;0.30;;;;;;;-1.29;66.39;101583.94;5045517;28;20445;-80
2024/03/17 05:54:41;;;;;;;0.10;0.10;;;;;;;-1.30;66.99;101577.06;5042695;28;20450;-80
2024/03/17 05:57:11;;;;;;;1.90;0.40;;;;;;;-1.30;67.08;101588.19;5041331;28;20434;-80
2024/03/17 05:59:38;;;;;;;1.67;0.73;;;;;;;-1.30;67.29;101583.06;5045722;28;20533;-82
2024/03/17 06:02:05;;;;;;;0.90;0.33;;;;;;;-1.27;67.24;101590.03;5043677;28;20442;-81
2024/03/17 06:04:32;;;;;;;1.83;0.37;;;;;;;-1.25;66.99;101642.31;5043048;28;20573;-81
2024/03/17 06:07:01;;;;;;;0.77;0.40;;;;;;;-1.26;66.37;101590.09;5049864;28;20469;-80
2024/03/17 06:09:28;;;;;;;1.37;0.60;;;;;;;-1.25;65.12;101614.94;5049565;28;20455;-81
2024/03/17 06:11:55;;;;;;;3.20;0.20;;;;;;;-1.27;64.82;101608.84;5048162;28;20459;-80
2024/03/17 06:14:22;;;;;;;1.57;0.70;;;;;;;-1.27;65.54;101613.13;5042390;28;20473;-79
2024/03/17 06:16:49;;;;;;;2.00;0.53;;;;;;;-1.26;65.38;101633.75;5043247;28;20501;-79
2024/03/17 06:19:16;;;;;;;1.03;0.50;;;;;;;-1.27;64.96;101649.94;5045094;28;20449;-78
2024/03/17 06:21:43;;;;;;;0.90;0.50;;;;;;;-1.26;64.31;101631.16;5039914;28;20448;-81
2024/03/17 06:24:11;;;;;;;2.73;0.77;;;;;;;-1.25;64.78;101645.75;5047418;28;20841;-81
2024/03/17 06:26:38;;;;;;;2.87;0.60;;;;;;;-1.23;64.98;101659.53;5039422;28;20517;-77
2024/03/17 06:29:05;;;;;;;2.30;0.50;;;;;;;-1.23;64.87;101669.81;5043006;28;20458;-82
2024/03/17 06:31:32;;;;;;;1.00;0.37;;;;;;;-1.20;65.33;101669.03;5048335;28;20459;-80
2024/03/17 06:33:59;;;;;;;2.13;0.53;;;;;;;-1.18;65.48;101669.97;5050582;28;20489;-81
2024/03/17 06:36:26;;;;;;;4.17;0.50;;;;;;;-1.17;64.95;101660.56;5042785;28;20443;-78
2024/03/17 06:38:53;;;;;;;1.13;0.53;;;;;;;-1.18;63.99;101675.09;5041346;28;20532;-80
2024/03/17 06:41:22;;;;;;;1.00;0.37;;;;;;;-1.15;64.34;101682.06;5042062;28;20451;-79
2024/03/17 06:43:49;;;;;;;0.67;0.40;;;;;;;-1.15;64.86;101706.03;5045790;28;20484;-79
2024/03/17 06:46:16;;;;;;;0.43;0.17;;;;;;;-1.17;64.94;101697.41;5045094;28;20569;-79
2024/03/17 06:48:43;;;;;;;1.37;0.50;;;;;;;-1.15;64.80;101735.97;5049493;28;20521;-78
2024/03/17 06:51:10;;;;;;;1.60;0.67;;;;;;;-1.12;64.20;101710.41;5048495;28;20446;-78
2024/03/17 06:53:37;;;;;;;1.37;0.50;;;;;;;-1.12;64.27;101715.56;5044492;28;20552;-81
2024/03/17 06:56:04;;;;;;;2.67;0.37;;;;;;;-1.11;64.29;101718.19;5045881;28;20460;-80
2024/03/17 06:58:33;;;;;;;0.93;0.30;;;;;;;-1.08;64.63;101738.00;5047367;28;20445;-81
2024/03/17 07:01:02;;;;;;;1.23;0.47;;;;;;;-1.07;64.82;101745.75;5044837;28;20512;-80
2024/03/17 07:03:31;;;;;;;2.50;0.67;;;;;;;-1.05;63.82;101749.25;5042902;28;20450;-78
2024/03/17 07:06:01;;;;;;;2.03;0.70;;;;;;;-1.04;62.26;101748.44;5046162;28;20994;-78
2024/03/17 07:08:29;;;;;;;2.47;0.60;;;;;;;-1.06;63.04;101751.75;5039853;28;20451;-81
2024/03/17 07:10:56;;;;;;;2.27;0.70;;;;;;;-1.03;63.05;101745.06;5046266;28;21051;-80
2024/03/17 07:13:23;;;;;;;1.90;0.57;;;;;;;-1.01;63.31;101751.13;5042384;28;20954;-81
2024/03/17 07:15:52;;;;;;;0.70;0.53;;;;;;;-0.98;63.80;101755.50;5048058;28;20456;-81
2024/03/17 07:18:19;;;;;;;0.47;0.40;;;;;;;-0.97;63.20;101752.16;5040884;28;20445;-82
2024/03/17 07:20:47;;;;;;;1.17;0.50;;;;;;;-0.94;62.97;101759.97;5042934;28;20450;-82
2024/03/17 07:23:15;;;;;;;0.53;0.50;;;;;;;-0.93;63.41;101769.44;5042616;28;20446;-81
2024/03/17 07:25:42;;;;;;;3.03;0.70;;;;;;;-0.93;62.76;101768.56;5041109;28;20482;-77
2024/03/17 07:28:09;;;;;;;1.93;0.57;;;;;;;-0.89;62.29;101770.41;5045469;28;20473;-81
2024/03/17 07:30:36;;;;;;;1.73;1.10;;;;;;;-0.88;61.95;101767.06;5046159;28;20450;-80
2024/03/17 07:33:04;;;;;;;0.97;0.57;;;;;;;-0.89;61.60;101781.56;5046266;28;20979;-80
2024/03/17 07:35:32;;;;;;;0.30;0.30;;;;;;;-0.85;62.44;101762.91;5049091;28;20465;-83
2024/03/17 07:37:59;;;;;;;3.07;1.10;;;;;;;-0.83;61.49;101797.25;5046253;28;20454;-80
2024/03/17 07:40:26;;;;;;;3.13;0.90;;;;;;;-0.80;62.06;101797.38;5046501;28;20529;-79
2024/03/17 07:42:53;;;;;;;0.50;0.50;;;;;;;-0.77;62.01;101817.19;5046633;28;20880;-79
2024/03/17 07:45:20;;;;;;;2.93;0.57;;;;;;;-0.74;62.20;101809.59;5049206;28;21084;-83
2024/03/17 07:47:47;;;;;;;1.53;0.30;;;;;;;-0.68;62.68;101808.97;5047198;28;20521;-80
2024/03/17 07:50:16;;;;;;;0.43;0.40;;;;;;;-0.64;62.17;101819.41;5050603;28;20540;-81
2024/03/17 07:52:43;;;;;;;1.90;0.50;;;;;;;-0.60;61.78;101830.72;5042646;28;20463;-80
2024/03/17 07:55:10;;;;;;;1.60;0.67;;;;;;;-0.55;61.91;101832.63;5047159;28;20469;-82
2024/03/17 07:57:37;;;;;;;1.43;0.73;;;;;;;-0.53;61.52;101866.09;5047897;28;20447;-79
2024/03/17 08:00:05;;;;;;;2.30;0.57;;;;;;;-0.47;60.27;101847.47;5047668;28;20466;-79
2024/03/17 08:02:32;;;;;;;1.53;0.50;;;;;;;-0.43;60.58;101860.53;5040646;28;20987;-80
2024/03/17 08:04:59;;;;;;;1.40;0.43;;;;;;;-0.38;60.01;101851.28;5048668;28;20442;-76
2024/03/17 08:07:27;;;;;;;2.73;0.60;;;;;;;-0.31;60.18;101855.00;5047484;28;20481;-81
2024/03/17 08:09:55;;;;;;;2.10;0.30;;;;;;;-0.24;60.10;101838.09;5049273;28;20458;-80
2024/03/17 08:12:22;;;;;;;2.07;0.53;;;;;;;-0.19;59.31;101870.88;5044026;28;20502;-78
2024/03/17 08:14:49;;;;;;;1.07;0.27;;;;;;;-0.18;57.40;101867.47;5043064;28;20536;-82
2024/03/17 08:17:16;;;;;;;1.37;0.50;;;;;;;-0.16;58.44;101867.56;5050901;28;20442;-80
2024/03/17 08:19:43;;;;;;;1.33;0.37;;;;;;;-0.15;58.27;101871.88;5044192;28;20446;-83
2024/03/17 08:22:10;;;;;;;3.30;0.97;;;;;;;-0.14;58.15;101881.38;5050288;28;20469;-81
2024/03/17 08:24:39;;;;;;;0.17;0.03;;;;;;;-0.12;58.40;101882.28;5050754;28;20441;-79
2024/03/17 08:27:06;;;;;;;0.30;0.30;;;;;;;-0.12;58.71;101890.91;5043896;28;20488;-82
2024/03/17 08:29:34;;;;;;;0.70;0.43;;;;;;;-0.09;58.13;101887.53;5050490;28;20521;-82
2024/03/17 08:32:01;;;;;;;0.33;0.33;;;;;;;-0.06;59.11;101886.78;5039872;28;20450;-82
2024/03/17 08:34:28;;;;;;;3.00;0.40;;;;;;;-0.04;58.63;101903.16;5048450;28;20471;-82
2024/03/17 08:36:56;;;;;;;0.67;0.53;;;;;;;-0.05;57.94;101907.44;5050621;28;20443;-85
2024/03/17 08:39:23;;;;;;;1.13;0.57;;;;;;;-0.04;57.98;101944.31;5052426;28;20860;-79
2024/03/17 08:41:51;;;;;;;1.73;0.67;;;;;;;-0.03;57.15;101933.22;5047052;28;20479;-82
2024/03/17 08:44:18;;;;;;;1.97;0.80;;;;;;;-0.05;56.27;101930.59;5043465;28;20450;-83
2024/03/17 08:46:45;;;;;;;1.23;0.47;;;;;;;-0.12;55.58;101932.06;5042542;28;20489;-82
2024/03/17 08:49:12;;;;;;;1.30;0.70;;;;;;;-0.12;56.32;101928.59;5043949;28;20533;-79
2024/03/17 08:51:39;;;;;;;2.20;0.60;;;;;;;-0.10;56.63;101932.09;5047927;28;20451;-80
2024/03/17 08:54:06;;;;;;;0.97;0.43;;;;;;;-0.12;56.11;101965.50;5050245;28;20562;-82
2024/03/17 08:56:35;;;;;;;0.60;0.60;;;;;;;-0.14;55.77;101967.13;5045094;28;20514;-84
2024/03/17 08:59:03;;;;;;;2.33;0.53;;;;;;;-0.15;55.99;101959.34;5050869;28;20871;-83
2024/03/17 09:01:32;;;;;;;2.30;0.63;;;;;;;-0.15;55.28;101961.91;5050550;28;20448;-79
2024/03/17 09:04:01;;;;;;;0.00;0.00;;;;;;;-0.13;56.09;101981.72;5044128;28;20467;-79
2024/03/17 09:06:29;;;;;;;0.53;0.30;;;;;;;-0.11;55.94;101968.94;5045878;28;20494;-76
2024/03/17 09:08:56;;;;;;;0.93;0.33;;;;;;;-0.08;55.81;101987.06;5051207;28;20458;-82
2024/03/17 09:11:25;;;;;;;1.40;0.70;;;;;;;-0.04;56.19;101988.06;5042907;28;20454;-81
2024/03/17 09:13:52;;;;;;;0.60;0.57;;;;;;;-0.03;55.94;101980.44;5047901;28;20465;-80
2024/03/17 09:16:22;;;;;;;2.07;0.40;;;;;;;0.02;55.76;101989.19;5048939;28;20434;-81
2024/03/17 09:18:50;;;;;;;2.13;0.43;;;;;;;0.05;54.51;101994.47;5043768;28;20577;-84
2024/03/17 09:21:17;;;;;;;0.87;0.53;;;;;;;0.07;54.58;102015.09;5044029;28;20816;-83
2024/03/17 09:23:44;;;;;;;0.30;0.20;;;;;;;0.08;54.01;102004.88;5048737;28;20477;-82
2024/03/17 09:26:13;;;;;;;0.73;0.53;;;;;;;0.07;53.90;102023.69;5047788;28;20478;-82
2024/03/17 09:28:41;;;;;;;1.30;0.70;;;;;;;0.08;52.38;102017.75;5046640;28;20446;-84
2024/03/17 09:31:07;;;;;;;1.40;0.57;;;;;;;0.07;51.72;102030.53;5047617;28;20461;-82
2024/03/17 09:33:38;;;;;;;0.30;0.30;;;;;;;0.16;51.81;102032.63;5047362;28;20530;-81
2024/03/17 09:36:07;;;;;;;1.80;0.67;;;;;;;0.35;50.81;102045.41;5041935;28;20430;-80
2024/03/17 09:38:34;;;;;;;0.43;0.20;;;;;;;0.41;52.32;102039.63;5043508;28;21084;-85
2024/03/17 09:41:02;;;;;;;1.43;0.63;;;;;;;0.41;51.93;102048.22;5047122;28;20442;-77
2024/03/17 09:43:29;;;;;;;2.63;0.70;;;;;;;0.47;52.24;102066.47;5048173;28;20438;-81
2024/03/17 09:45:58;;;;;;;0.50;0.43;;;;;;;0.53;52.55;102051.25;5042811;28;21057;-78
2024/03/17 09:48:27;;;;;;;1.77;0.60;;;;;;;0.56;51.74;102071.09;5040521;28;20442;-77
2024/03/17 09:50:59;;;;;;;1.50;0.50;;;;;;;0.55;51.94;102080.53;5048163;28;21112;-85
2024/03/17 09:53:28;;;;;;;0.30;0.30;;;;;;;0.52;52.17;102070.13;5041506;28;20522;-82
2024/03/17 09:55:59;;;;;;;0.10;0.10;;;;;;;0.52;53.09;102076.97;5046716;28;20445;-80
2024/03/17 09:58:26;;;;;;;0.60;0.50;;;;;;;0.50;52.38;102084.63;5037243;28;20486;-82
2024/03/17 10:00:53;;;;;;;1.13;0.60;;;;;;;0.47;52.08;102061.31;5046710;28;20550;-80
2024/03/17 10:03:42;;;;;;;0.37;0.33;;;;;;;0.49;52.19;102090.59;5039314;28;20444;-82
2024/03/17 10:06:13;;;;;;;1.03;0.50;;;;;;;0.48;52.86;102083.69;5042823;28;20485;-80
2024/03/17 10:08:48;;;;;;;1.03;0.50;;;;;;;0.50;52.17;102106.91;5042055;28;20851;-81
2024/03/17 10:11:17;;;;;;;0.10;0.10;;;;;;;0.50;51.32;102084.63;5039855;28;20917;-83
2024/03/17 10:13:44;;;;;;;1.03;0.60;;;;;;;0.51;50.45;102100.97;5039473;28;20853;-82
2024/03/17 10:16:25;;;;;;;1.30;0.50;;;;;;;0.52;51.38;102128.47;5045624;28;20466;-80
2024/03/17 10:19:07;;;;;;;1.90;0.70;;;;;;;0.52;50.76;102126.75;5047057;28;20976;-82
2024/03/17 10:21:36;;;;;;;0.20;0.20;;;;;;;0.50;50.67;102136.13;5045498;28;20435;-83
2024/03/17 10:24:07;;;;;;;1.10;0.50;;;;;;;0.49;50.77;102144.66;5047967;28;20438;-82
2024/03/17 10:26:38;;;;;;;0.70;0.23;;;;;;;0.49;50.22;102151.53;5046273;28;20528;-82
2024/03/17 10:29:06;;;;;;;2.23;0.70;;;;;;;0.48;48.73;102155.81;5041619;28;20499;-82
2024/03/17 10:31:33;;;;;;;0.87;0.30;;;;;;;0.46;48.84;102156.56;5044046;28;20488;-83
2024/03/17 10:34:03;;;;;;;2.53;0.60;;;;;;;0.43;47.59;102146.13;5051922;28;20509;-82
2024/03/17 10:36:30;;;;;;;0.63;0.57;;;;;;;0.38;47.94;102161.38;5044896;28;20477;-82
2024/03/17 10:38:59;;;;;;;1.07;0.60;;;;;;;0.37;48.18;102169.94;5048991;28;20450;-82
2024/03/17 10:41:29;;;;;;;1.00;0.40;;;;;;;0.37;47.49;102166.44;5041056;28;20450;-82
2024/03/17 10:43:56;;;;;;;0.67;0.40;;;;;;;0.34;47.89;102162.06;5046922;28;21801;-80
2024/03/17 10:46:27;;;;;;;0.20;0.20;;;;;;;0.35;48.98;102179.28;5044843;28;20589;-80
2024/03/17 10:48:54;;;;;;;0.73;0.37;;;;;;;0.37;48.94;102181.91;5045562;28;20456;-83
2024/03/17 10:51:21;;;;;;;0.43;0.30;;;;;;;0.38;49.88;102181.97;5041148;28;20449;-81
2024/03/17 10:53:52;;;;;;;0.30;0.30;;;;;;;0.40;49.68;102198.38;5043659;28;20446;-81
2024/03/17 10:56:21;;;;;;;1.53;0.40;;;;;;;0.42;48.79;102206.16;5046045;28;20565;-82
2024/03/17 10:58:56;;;;;;;0.97;0.60;;;;;;;0.43;48.79;102190.78;5044720;28;20461;-81
2024/03/17 11:01:25;;;;;;;0.77;0.33;;;;;;;0.46;49.66;102203.78;5043468;28;20486;-81
2024/03/17 11:03:52;;;;;;;1.00;0.60;;;;;;;0.46;48.52;102193.47;5047339;28;20457;-81
2024/03/17 11:06:20;;;;;;;1.33;0.40;;;;;;;0.42;48.50;102207.03;5048647;28;20565;-82
2024/03/17 11:08:47;;;;;;;3.00;0.50;;;;;;;0.44;48.71;102204.53;5046717;28;20512;-81
2024/03/17 11:11:14;;;;;;;0.30;0.20;;;;;;;0.43;48.54;102213.94;5048435;28;20472;-80
2024/03/17 11:13:43;;;;;;;1.27;0.50;;;;;;;0.37;48.69;102205.97;5051588;28;20454;-82
2024/03/17 11:16:27;;;;;;;1.43;0.53;;;;;;;0.43;48.46;102213.94;5052926;28;21074;-81
2024/03/17 11:19:08;;;;;;;0.47;0.30;;;;;;;0.42;47.59;102216.44;5055407;28;20446;-82
2024/03/17 11:21:36;;;;;;;1.23;0.30;;;;;;;0.40;48.64;102211.25;5046930;28;20473;-83
2024/03/17 11:24:03;;;;;;;0.10;0.10;;;;;;;0.40;48.38;102228.41;5046054;28;20433;-83
2024/03/17 11:26:33;;;;;;;0.13;0.13;;;;;;;0.39;48.30;102237.78;5049443;28;20481;-81
2024/03/17 11:29:06;;;;;;;1.53;0.60;;;;;;;0.38;46.71;102228.31;5050282;28;20459;-81